createdAt,value
2018-05-08T00:02:15.044Z,16.90
2018-05-08T00:04:42.539Z,16.90
2018-05-08T00:07:10.813Z,16.90
2018-05-08T00:09:39.138Z,17.00
2018-05-08T00:12:06.624Z,16.90
2018-05-08T00:14:34.547Z,16.90
2018-05-08T00:17:02.052Z,16.90
2018-05-08T00:19:29.589Z,16.90
2018-05-08T00:21:57.081Z,16.80
2018-05-08T00:24:25.375Z,16.80
2018-05-08T00:26:52.955Z,16.70
2018-05-08T00:29:20.496Z,16.80
2018-05-08T00:31:48.051Z,16.80
2018-05-08T00:34:15.599Z,16.80
2018-05-08T00:36:43.863Z,16.70
2018-05-08T00:39:12.340Z,16.70
2018-05-08T00:41:40.629Z,16.60
2018-05-08T00:44:09.018Z,16.60
2018-05-08T00:46:37.339Z,16.60
2018-05-08T00:49:04.879Z,16.60
2018-05-08T00:51:32.493Z,16.50
2018-05-08T00:54:01.014Z,16.50
2018-05-08T00:56:28.556Z,16.50
2018-05-08T00:58:56.059Z,16.50
2018-05-08T01:01:23.561Z,16.40
2018-05-08T01:03:51.872Z,16.20
2018-05-08T01:06:19.422Z,16.20
2018-05-08T01:08:46.913Z,16.10
2018-05-08T01:11:14.433Z,16.10
2018-05-08T01:13:41.943Z,16.00
2018-05-08T01:16:09.457Z,16.00
2018-05-08T01:18:36.962Z,15.90
2018-05-08T01:21:05.262Z,15.80
2018-05-08T01:23:32.837Z,15.70
2018-05-08T01:26:00.360Z,15.80
2018-05-08T01:28:27.955Z,15.60
2018-05-08T01:30:55.480Z,15.60
2018-05-08T01:33:23.737Z,15.70
2018-05-08T01:35:51.260Z,15.70
2018-05-08T01:38:18.885Z,15.60
2018-05-08T01:40:46.403Z,15.30
2018-05-08T01:43:14.000Z,15.20
2018-05-08T01:45:41.451Z,15.10
2018-05-08T01:48:09.717Z,15.00
2018-05-08T01:50:37.999Z,15.10
2018-05-08T01:53:06.325Z,15.00
2018-05-08T01:55:35.290Z,15.00
2018-05-08T01:58:02.852Z,15.00
2018-05-08T02:00:30.691Z,14.90
2018-05-08T02:02:58.955Z,14.90
2018-05-08T02:05:27.333Z,14.90
2018-05-08T02:07:55.676Z,14.80
2018-05-08T02:10:23.181Z,14.80
2018-05-08T02:12:50.764Z,14.60
2018-05-08T02:15:18.325Z,14.50
2018-05-08T02:17:46.088Z,14.50
2018-05-08T02:20:13.606Z,14.40
2018-05-08T02:22:42.150Z,14.40
2018-05-08T02:25:09.679Z,14.40
2018-05-08T02:27:37.184Z,14.40
2018-05-08T02:30:04.880Z,14.40
2018-05-08T02:32:32.467Z,14.30
2018-05-08T02:34:59.995Z,14.30
2018-05-08T02:37:28.282Z,14.10
2018-05-08T02:39:55.969Z,14.10
2018-05-08T02:42:23.477Z,14.10
2018-05-08T02:44:52.050Z,13.90
2018-05-08T02:47:19.564Z,13.90
2018-05-08T02:49:47.071Z,13.90
2018-05-08T02:52:15.972Z,13.80
2018-05-08T02:54:44.268Z,13.70
2018-05-08T02:57:11.765Z,13.70
2018-05-08T02:59:39.281Z,13.70
2018-05-08T03:02:06.833Z,13.60
2018-05-08T03:04:34.368Z,13.60
2018-05-08T03:07:02.674Z,13.60
2018-05-08T03:09:30.206Z,13.60
2018-05-08T03:11:58.617Z,13.50
2018-05-08T03:14:26.539Z,13.50
2018-05-08T03:16:54.023Z,13.50
2018-05-08T03:19:22.333Z,13.50
2018-05-08T03:21:49.857Z,13.50
2018-05-08T03:24:17.377Z,13.50
2018-05-08T03:26:44.974Z,13.40
2018-05-08T03:29:12.518Z,13.30
2018-05-08T03:31:40.811Z,13.20
2018-05-08T03:34:08.307Z,13.20
2018-05-08T03:36:35.868Z,13.20
2018-05-08T03:39:03.399Z,13.30
2018-05-08T03:41:30.894Z,13.10
2018-05-08T03:43:58.417Z,13.00
2018-05-08T03:46:26.073Z,13.00
2018-05-08T03:48:53.569Z,13.10
2018-05-08T03:51:21.350Z,13.00
2018-05-08T03:53:48.879Z,13.10
2018-05-08T03:56:16.433Z,13.10
2018-05-08T03:58:43.965Z,13.00
2018-05-08T04:01:23.273Z,13.00
2018-05-08T04:04:03.601Z,13.00
2018-05-08T04:09:35.542Z,13.00
2018-05-08T04:12:03.096Z,13.10
2018-05-08T04:14:30.689Z,13.00
2018-05-08T04:16:58.207Z,13.00
2018-05-08T04:19:25.783Z,13.10
2018-05-08T04:21:53.332Z,13.10
2018-05-08T04:24:21.172Z,13.10
2018-05-08T04:26:48.722Z,13.10
2018-05-08T04:29:17.023Z,13.30
2018-05-08T04:31:44.649Z,13.30
2018-05-08T04:34:12.906Z,13.30
2018-05-08T04:36:40.537Z,13.30
2018-05-08T04:39:08.778Z,13.40
2018-05-08T04:41:37.069Z,13.50
2018-05-08T04:44:04.581Z,13.50
2018-05-08T04:46:32.123Z,13.70
2018-05-08T04:48:59.694Z,13.80
2018-05-08T04:51:27.339Z,14.00
2018-05-08T04:53:54.843Z,14.10
2018-05-08T04:56:23.101Z,16.00
2018-05-08T04:58:51.473Z,17.50
2018-05-08T05:01:18.993Z,17.50
2018-05-08T05:03:46.507Z,17.90
2018-05-08T05:06:14.815Z,18.40
2018-05-08T05:08:42.349Z,18.40
2018-05-08T05:11:09.958Z,18.00
2018-05-08T05:13:37.404Z,18.20
2018-05-08T05:16:05.047Z,18.80
2018-05-08T05:18:32.547Z,18.60
2018-05-08T05:21:00.074Z,18.70
2018-05-08T05:23:27.667Z,19.00
2018-05-08T05:25:55.208Z,19.00
2018-05-08T05:28:22.796Z,19.10
2018-05-08T05:30:50.313Z,18.70
2018-05-08T05:33:17.859Z,19.70
2018-05-08T05:35:45.367Z,20.80
2018-05-08T05:38:12.941Z,21.90
2018-05-08T05:40:40.450Z,21.50
2018-05-08T05:43:07.955Z,21.20
2018-05-08T05:48:09.563Z,20.90
2018-05-08T05:50:37.078Z,20.30
2018-05-08T05:53:05.370Z,18.90
2018-05-08T05:55:32.945Z,18.90
2018-05-08T05:58:00.465Z,19.90
2018-05-08T06:00:28.735Z,21.70
2018-05-08T06:02:57.024Z,21.40
2018-05-08T06:05:24.611Z,21.40
2018-05-08T06:07:52.113Z,22.60
2018-05-08T06:10:19.622Z,22.70
2018-05-08T06:12:47.163Z,21.50
2018-05-08T06:15:15.454Z,21.30
2018-05-08T06:17:42.991Z,21.20
2018-05-08T06:20:11.291Z,21.20
2018-05-08T06:22:38.783Z,21.20
2018-05-08T06:25:06.411Z,23.70
2018-05-08T06:27:34.046Z,23.00
2018-05-08T06:30:02.264Z,21.90
2018-05-08T06:32:30.631Z,20.40
2018-05-08T06:34:58.216Z,20.90
2018-05-08T06:37:25.717Z,21.60
2018-05-08T06:39:53.991Z,22.50
2018-05-08T06:42:21.575Z,22.40
2018-05-08T06:44:49.168Z,21.90
2018-05-08T06:47:16.789Z,22.40
2018-05-08T06:49:44.438Z,22.70
2018-05-08T06:52:12.098Z,22.50
2018-05-08T06:54:39.662Z,22.80
2018-05-08T06:57:07.272Z,21.50
2018-05-08T06:59:34.791Z,20.00
2018-05-08T07:02:02.347Z,20.10
2018-05-08T07:04:30.180Z,21.20
2018-05-08T07:06:57.692Z,22.30
2018-05-08T07:09:25.221Z,22.50
2018-05-08T07:11:52.781Z,22.20
2018-05-08T07:14:20.302Z,21.10
2018-05-08T07:16:48.705Z,20.60
2018-05-08T07:19:16.220Z,20.60
2018-05-08T07:21:43.812Z,22.30
2018-05-08T07:24:11.320Z,23.40
2018-05-08T07:26:38.880Z,23.00
2018-05-08T07:29:06.417Z,23.00
2018-05-08T07:31:33.934Z,24.70
2018-05-08T07:34:02.233Z,26.30
2018-05-08T07:36:29.778Z,26.20
2018-05-08T07:38:57.337Z,24.40
2018-05-08T07:41:24.918Z,24.50
2018-05-08T07:43:52.433Z,23.20
2018-05-08T07:46:20.707Z,23.20
2018-05-08T07:48:49.025Z,24.40
2018-05-08T07:51:16.589Z,24.30
2018-05-08T07:53:44.141Z,23.00
2018-05-08T07:56:11.909Z,22.50
2018-05-08T07:58:39.535Z,23.20
2018-05-08T08:01:07.736Z,22.50
2018-05-08T08:03:35.264Z,22.50
2018-05-08T08:06:03.553Z,24.40
2018-05-08T08:08:31.873Z,24.40
2018-05-08T08:10:59.415Z,23.40
2018-05-08T08:13:26.946Z,24.40
2018-05-08T08:15:54.540Z,25.40
2018-05-08T08:18:22.124Z,25.20
2018-05-08T08:20:49.623Z,24.90
2018-05-08T08:23:17.187Z,23.00
2018-05-08T08:25:45.949Z,22.70
2018-05-08T08:28:14.261Z,23.60
2018-05-08T08:30:41.816Z,23.60
2018-05-08T08:33:09.320Z,24.00
2018-05-08T08:35:36.984Z,26.10
2018-05-08T08:38:04.466Z,24.30
2018-05-08T08:40:32.130Z,25.60
2018-05-08T08:42:59.676Z,26.00
2018-05-08T08:45:27.990Z,25.90
2018-05-08T08:47:55.612Z,25.90
2018-05-08T08:50:23.032Z,27.60
2018-05-08T08:52:50.613Z,25.60
2018-05-08T08:55:18.940Z,26.80
2018-05-08T08:57:46.464Z,26.70
2018-05-08T09:00:14.826Z,25.40
2018-05-08T09:02:42.552Z,25.30
2018-05-08T09:05:10.063Z,25.80
2018-05-08T09:07:38.339Z,25.80
2018-05-08T09:10:06.645Z,27.50
2018-05-08T09:12:34.183Z,27.40
2018-05-08T09:15:01.679Z,26.60
2018-05-08T09:17:29.214Z,25.70
2018-05-08T09:19:56.809Z,26.30
2018-05-08T09:22:24.365Z,27.20
2018-05-08T09:24:52.013Z,25.80
2018-05-08T09:27:19.556Z,26.20
2018-05-08T09:29:47.066Z,28.00
2018-05-08T09:32:15.410Z,27.70
2018-05-08T09:34:43.019Z,27.60
2018-05-08T09:37:11.337Z,27.50
2018-05-08T09:39:39.311Z,27.50
2018-05-08T09:42:06.840Z,27.00
2018-05-08T09:44:34.365Z,27.50
2018-05-08T09:47:01.906Z,28.50
2018-05-08T09:49:29.474Z,26.70
2018-05-08T09:51:57.030Z,28.00
2018-05-08T09:54:24.565Z,28.20
2018-05-08T09:56:52.306Z,27.00
2018-05-08T09:59:19.829Z,27.40
2018-05-08T10:01:48.884Z,28.70
2018-05-08T10:04:16.516Z,28.60
2018-05-08T10:06:44.067Z,27.30
2018-05-08T10:09:11.595Z,27.10
2018-05-08T10:11:39.893Z,28.10
2018-05-08T10:14:07.463Z,28.10
2018-05-08T10:16:34.981Z,26.90
2018-05-08T10:19:03.294Z,26.80
2018-05-08T10:21:30.824Z,26.80
2018-05-08T10:23:59.102Z,27.50
2018-05-08T10:26:26.688Z,27.40
2018-05-08T10:28:54.171Z,26.20
2018-05-08T10:31:21.696Z,26.30
2018-05-08T10:33:49.214Z,27.40
2018-05-08T10:36:16.730Z,26.10
2018-05-08T10:38:44.273Z,27.30
2018-05-08T10:41:11.846Z,27.60
2018-05-08T10:43:39.342Z,27.90
2018-05-08T10:46:06.965Z,27.50
2018-05-08T10:48:34.473Z,27.30
2018-05-08T10:51:03.629Z,27.30
2018-05-08T10:53:31.165Z,27.30
2018-05-08T10:55:58.709Z,27.20
2018-05-08T10:58:26.306Z,28.10
2018-05-08T11:00:53.857Z,26.30
2018-05-08T11:03:21.355Z,26.10
2018-05-08T11:05:49.673Z,27.00
2018-05-08T11:08:17.191Z,27.00
2018-05-08T11:10:45.455Z,26.60
2018-05-08T11:13:13.855Z,27.60
2018-05-08T11:15:41.394Z,27.60
2018-05-08T11:18:09.690Z,27.00
2018-05-08T11:20:37.216Z,27.00
2018-05-08T11:23:05.924Z,26.50
2018-05-08T11:25:45.224Z,27.80
2018-05-08T11:28:12.726Z,27.80
2018-05-08T11:30:40.246Z,28.10
2018-05-08T11:33:07.736Z,27.00
2018-05-08T11:35:35.293Z,26.90
2018-05-08T11:38:03.581Z,26.90
2018-05-08T11:40:31.155Z,26.90
2018-05-08T11:42:58.806Z,26.80
2018-05-08T11:45:26.392Z,27.70
2018-05-08T11:47:53.934Z,28.40
2018-05-08T11:50:21.477Z,28.30
2018-05-08T11:52:49.739Z,27.50
2018-05-08T11:55:18.025Z,26.80
2018-05-08T11:57:45.555Z,26.70
2018-05-08T12:00:13.070Z,27.00
2018-05-08T12:02:40.687Z,27.10
2018-05-08T12:05:08.176Z,26.50
2018-05-08T12:07:35.690Z,26.20
2018-05-08T12:10:04.285Z,26.30
2018-05-08T12:12:31.872Z,26.20
2018-05-08T12:14:59.432Z,26.50
2018-05-08T12:17:26.996Z,26.40
2018-05-08T12:19:54.617Z,26.40
2018-05-08T12:22:22.913Z,26.50
2018-05-08T12:24:50.432Z,26.50
2018-05-08T12:27:18.314Z,26.40
2018-05-08T12:29:47.499Z,26.20
2018-05-08T12:32:15.813Z,26.40
2018-05-08T12:34:43.362Z,26.30
2018-05-08T12:37:10.912Z,26.40
2018-05-08T12:39:38.442Z,26.60
2018-05-08T12:42:05.984Z,26.70
2018-05-08T12:44:33.495Z,26.80
2018-05-08T12:47:01.024Z,26.70
2018-05-08T12:49:28.627Z,26.50
2018-05-08T12:51:56.186Z,26.20
2018-05-08T12:54:24.493Z,26.40
2018-05-08T12:56:52.343Z,26.60
2018-05-08T12:59:19.833Z,26.60
2018-05-08T13:01:47.349Z,26.60
2018-05-08T13:04:14.887Z,26.30
2018-05-08T13:06:42.456Z,26.40
2018-05-08T13:09:09.990Z,26.50
2018-05-08T13:11:37.516Z,26.60
2018-05-08T13:14:05.044Z,26.60
2018-05-08T13:16:32.553Z,26.40
2018-05-08T13:19:00.862Z,26.70
2018-05-08T13:21:28.490Z,26.70
2018-05-08T13:23:56.856Z,26.80
2018-05-08T13:26:25.141Z,26.90
2018-05-08T13:28:53.436Z,26.80
2018-05-08T13:31:20.982Z,26.80
2018-05-08T13:33:49.306Z,27.00
2018-05-08T13:36:17.971Z,27.00
2018-05-08T13:38:45.511Z,26.90
2018-05-08T13:41:13.050Z,26.80
2018-05-08T13:43:41.334Z,27.10
2018-05-08T13:46:09.600Z,27.10
2018-05-08T13:48:37.894Z,27.10
2018-05-08T13:51:05.417Z,27.10
2018-05-08T13:53:32.959Z,27.10
2018-05-08T13:56:00.499Z,27.10
2018-05-08T13:58:28.056Z,26.70
2018-05-08T14:00:55.704Z,26.70
2018-05-08T14:03:23.990Z,27.00
2018-05-08T14:05:51.579Z,27.00
2018-05-08T14:08:19.068Z,27.00
2018-05-08T14:10:47.396Z,26.90
2018-05-08T14:13:14.933Z,26.90
2018-05-08T14:15:42.478Z,26.90
2018-05-08T14:18:10.048Z,27.20
2018-05-08T14:20:37.634Z,26.80
2018-05-08T14:23:05.145Z,26.90
2018-05-08T14:25:33.011Z,27.00
2018-05-08T14:28:01.550Z,26.80
2018-05-08T14:30:29.028Z,26.70
2018-05-08T14:32:57.446Z,26.90
2018-05-08T14:35:25.014Z,26.90
2018-05-08T14:37:57.460Z,26.90
2018-05-08T14:40:25.006Z,27.00
2018-05-08T14:42:53.397Z,26.90
2018-05-08T14:45:21.250Z,26.80
2018-05-08T14:47:49.548Z,26.90
2018-05-08T14:50:17.064Z,26.90
2018-05-08T14:52:44.637Z,27.00
2018-05-08T14:55:13.004Z,26.90
2018-05-08T14:57:40.543Z,26.90
2018-05-08T15:00:08.139Z,27.00
2018-05-08T15:02:36.405Z,27.10
2018-05-08T15:05:04.733Z,26.80
2018-05-08T15:07:32.335Z,26.80
2018-05-08T15:09:59.834Z,26.80
2018-05-08T15:12:27.388Z,26.90
2018-05-08T15:14:55.155Z,26.90
2018-05-08T15:17:22.814Z,26.80
2018-05-08T15:19:50.354Z,26.80
2018-05-08T15:22:17.882Z,26.80
2018-05-08T15:24:46.148Z,26.80
2018-05-08T15:27:13.745Z,26.80
2018-05-08T15:29:41.307Z,26.80
2018-05-08T15:32:08.808Z,26.90
2018-05-08T15:34:36.369Z,26.80
2018-05-08T15:37:14.554Z,26.60
2018-05-08T15:39:42.104Z,26.60
2018-05-08T15:42:09.619Z,26.60
2018-05-08T15:44:37.206Z,26.50
2018-05-08T15:47:04.784Z,26.50
2018-05-08T15:49:32.418Z,26.70
2018-05-08T15:52:00.228Z,26.80
2018-05-08T15:54:28.601Z,26.80
2018-05-08T15:56:56.075Z,26.70
2018-05-08T15:59:23.605Z,26.80
2018-05-08T16:01:51.127Z,26.80
2018-05-08T16:04:20.071Z,26.60
2018-05-08T16:06:50.370Z,26.70
2018-05-08T16:09:18.295Z,26.60
2018-05-08T16:11:45.923Z,26.60
2018-05-08T16:14:13.554Z,26.50
2018-05-08T16:16:41.072Z,26.40
2018-05-08T16:19:09.377Z,26.40
2018-05-08T16:21:36.894Z,26.40
2018-05-08T16:24:04.489Z,26.50
2018-05-08T16:26:32.031Z,26.40
2018-05-08T16:29:00.330Z,26.40
2018-05-08T16:31:27.900Z,26.40
2018-05-08T16:33:55.424Z,26.40
2018-05-08T16:36:23.777Z,26.40
2018-05-08T16:38:51.323Z,26.30
2018-05-08T16:41:18.910Z,26.40
2018-05-08T16:43:47.568Z,26.30
2018-05-08T16:46:15.079Z,26.30
2018-05-08T16:48:42.676Z,26.20
2018-05-08T16:51:10.207Z,26.20
2018-05-08T16:53:37.763Z,26.20
2018-05-08T16:56:05.837Z,26.20
2018-05-08T16:58:33.399Z,26.20
2018-05-08T17:01:00.953Z,26.10
2018-05-08T17:03:28.555Z,26.10
2018-05-08T17:05:56.077Z,26.10
2018-05-08T17:08:24.408Z,26.10
2018-05-08T17:10:51.929Z,25.90
2018-05-08T17:13:19.535Z,25.90
2018-05-08T17:15:47.868Z,25.90
2018-05-08T17:18:15.497Z,25.90
2018-05-08T17:20:44.094Z,25.70
2018-05-08T17:23:11.653Z,25.70
2018-05-08T17:25:39.535Z,25.80
2018-05-08T17:28:07.044Z,25.70
2018-05-08T17:30:34.575Z,25.70
2018-05-08T17:33:02.183Z,25.70
2018-05-08T17:35:29.856Z,25.60
2018-05-08T17:37:57.401Z,25.60
2018-05-08T17:40:24.914Z,25.60
2018-05-08T17:42:53.310Z,25.50
2018-05-08T17:45:21.686Z,25.40
2018-05-08T17:47:49.176Z,25.40
2018-05-08T17:50:16.780Z,25.40
2018-05-08T17:52:44.322Z,25.20
2018-05-08T17:55:11.869Z,25.20
2018-05-08T17:57:39.397Z,25.10
2018-05-08T18:00:06.961Z,25.10
2018-05-08T18:02:34.515Z,25.10
2018-05-08T18:05:02.050Z,25.10
2018-05-08T18:07:30.339Z,24.90
2018-05-08T18:09:58.188Z,24.90
2018-05-08T18:12:26.470Z,24.70
2018-05-08T18:14:54.001Z,24.70
2018-05-08T18:17:21.923Z,24.70
2018-05-08T18:19:49.464Z,24.60
2018-05-08T18:22:17.019Z,24.50
2018-05-08T18:24:44.592Z,24.40
2018-05-08T18:27:12.090Z,24.30
2018-05-08T18:29:39.869Z,24.20
2018-05-08T18:32:07.473Z,24.10
2018-05-08T18:34:35.035Z,24.00
2018-05-08T18:37:02.564Z,23.80
2018-05-08T18:39:30.111Z,23.70
2018-05-08T18:41:58.423Z,23.40
2018-05-08T18:44:25.938Z,23.40
2018-05-08T18:46:53.492Z,23.30
2018-05-08T18:49:21.829Z,23.20
2018-05-08T18:51:49.373Z,23.10
2018-05-08T18:54:16.957Z,23.10
2018-05-08T18:56:44.465Z,22.90
2018-05-08T18:59:12.124Z,22.80
2018-05-08T19:01:39.726Z,22.70
2018-05-08T19:04:07.276Z,22.60
2018-05-08T19:06:34.783Z,22.50
2018-05-08T19:09:03.133Z,22.30
2018-05-08T19:11:36.213Z,22.30
2018-05-08T19:14:03.755Z,22.30
2018-05-08T19:16:31.281Z,22.20
2018-05-08T19:19:05.590Z,22.00
2018-05-08T19:21:33.851Z,22.00
2018-05-08T19:24:07.079Z,22.00
2018-05-08T19:26:34.616Z,22.00
2018-05-08T19:29:07.841Z,21.80
2018-05-08T19:31:35.813Z,21.70
2018-05-08T19:34:03.295Z,21.60
2018-05-08T19:36:36.487Z,21.60
2018-05-08T19:39:04.143Z,21.60
2018-05-08T19:41:31.772Z,21.70
2018-05-08T19:43:59.442Z,21.70
2018-05-08T19:46:27.051Z,21.60
2018-05-08T19:48:54.627Z,21.60
2018-05-08T19:51:22.954Z,21.50
2018-05-08T19:53:50.486Z,21.50
2018-05-08T19:56:18.076Z,21.40
2018-05-08T19:58:45.590Z,21.40
2018-05-08T20:01:13.213Z,21.40
2018-05-08T20:03:42.367Z,21.30
2018-05-08T20:06:09.904Z,21.30
2018-05-08T20:08:37.451Z,21.00
2018-05-08T20:11:05.751Z,20.50
2018-05-08T20:13:33.271Z,20.50
2018-05-08T20:16:01.621Z,20.30
2018-05-08T20:18:29.276Z,20.30
2018-05-08T20:20:56.831Z,20.30
2018-05-08T20:23:24.354Z,20.20
2018-05-08T20:25:51.870Z,20.10
2018-05-08T20:28:20.617Z,20.20
2018-05-08T20:30:48.117Z,20.10
2018-05-08T20:33:15.724Z,20.10
2018-05-08T20:35:43.264Z,20.30
2018-05-08T20:38:10.764Z,20.10
2018-05-08T20:40:38.297Z,20.10
2018-05-08T20:43:05.814Z,20.10
2018-05-08T20:45:34.355Z,19.80
2018-05-08T20:48:01.944Z,19.80
2018-05-08T20:50:29.482Z,19.70
2018-05-08T20:52:58.245Z,19.80
2018-05-08T20:55:25.799Z,19.70
2018-05-08T20:57:53.381Z,19.70
2018-05-08T21:00:20.874Z,19.50
2018-05-08T21:02:49.388Z,19.30
2018-05-08T21:05:16.895Z,19.30
2018-05-08T21:07:44.511Z,19.10
2018-05-08T21:12:45.983Z,18.90
2018-05-08T21:15:13.507Z,19.10
2018-05-08T21:17:41.817Z,18.90
2018-05-08T21:20:09.293Z,18.90
2018-05-08T21:22:37.001Z,19.00
2018-05-08T21:25:05.484Z,18.90
2018-05-08T21:27:39.509Z,18.80
2018-05-08T21:30:12.715Z,18.80
2018-05-08T21:32:40.276Z,18.80
2018-05-08T21:35:07.781Z,18.70
2018-05-08T21:37:36.045Z,18.60
2018-05-08T21:40:03.664Z,18.60
2018-05-08T21:42:31.215Z,18.50
2018-05-08T21:44:58.733Z,18.50
2018-05-08T21:47:27.017Z,18.40
2018-05-08T21:49:55.325Z,18.40
2018-05-08T21:52:22.993Z,18.40
2018-05-08T21:54:51.068Z,18.20
2018-05-08T21:57:18.651Z,18.20
2018-05-08T21:59:46.145Z,18.20
2018-05-08T22:02:14.490Z,17.80
2018-05-08T22:04:43.520Z,17.70
2018-05-08T22:07:11.086Z,17.70
2018-05-08T22:09:38.639Z,17.50
2018-05-08T22:12:06.184Z,17.40
2018-05-08T22:14:34.467Z,17.40
2018-05-08T22:17:02.001Z,17.40
2018-05-08T22:19:29.511Z,17.50
2018-05-08T22:21:57.017Z,17.30
2018-05-08T22:24:25.443Z,17.30
2018-05-08T22:26:53.033Z,17.30
2018-05-08T22:29:20.522Z,17.20
2018-05-08T22:31:49.111Z,17.20
2018-05-08T22:34:16.665Z,17.20
2018-05-08T22:36:44.956Z,17.20
2018-05-08T22:39:12.485Z,17.10
2018-05-08T22:41:40.008Z,17.10
2018-05-08T22:44:07.549Z,17.00
2018-05-08T22:46:35.131Z,17.00
2018-05-08T22:49:03.453Z,16.80
2018-05-08T22:51:31.732Z,16.70
2018-05-08T22:53:59.321Z,16.70
2018-05-08T22:56:26.839Z,17.00
2018-05-08T22:58:55.141Z,16.80
2018-05-08T23:01:22.675Z,16.80
2018-05-08T23:03:51.011Z,16.70
2018-05-08T23:06:18.552Z,16.70
2018-05-08T23:08:46.198Z,16.70
2018-05-08T23:11:13.639Z,16.70
2018-05-08T23:13:41.215Z,16.70
2018-05-08T23:16:08.928Z,16.70
2018-05-08T23:18:36.436Z,16.50
2018-05-08T23:21:04.142Z,16.50
2018-05-08T23:23:31.700Z,16.40
2018-05-08T23:25:59.197Z,16.30
2018-05-08T23:28:26.773Z,16.20
2018-05-08T23:30:54.294Z,16.20
2018-05-08T23:33:22.564Z,16.20
2018-05-08T23:35:50.107Z,16.20
2018-05-08T23:38:17.764Z,16.20
2018-05-08T23:40:45.387Z,16.20
2018-05-08T23:43:12.880Z,16.10
2018-05-08T23:45:40.412Z,16.10
2018-05-08T23:48:08.047Z,16.10
2018-05-08T23:50:35.579Z,16.00
2018-05-08T23:53:03.906Z,16.00
2018-05-08T23:55:31.655Z,16.00
2018-05-08T23:57:59.152Z,15.90
